Time;durP1;ratioP1;P1;durP2;ratioP2;P2;SDS_P1;SDS_P2;PMS_P1;PMS_P2;Temp;Humidity;BMP_temperature;BMP_pressure;BME280_temperature;BME280_humidity;BME280_pressure;Samples;Min_cycle;Max_cycle;Signal;HPM_P1;HPM_P2
2022/02/20 00:01:09;;;;;;;6.70;1.20;;;;;;;;;;4971767;28;20054;-71
2022/02/20 00:03:35;;;;;;;2.58;1.10;;;;;;;;;;4971262;28;20043;-71
2022/02/20 00:06:03;;;;;;;3.95;1.45;;;;;;;;;;4971486;28;20047;-71
2022/02/20 00:08:30;;;;;;;7.55;1.17;;;;;;;;;;4971373;28;20462;-71
2022/02/20 00:10:56;;;;;;;6.57;0.85;;;;;;;;;;4954029;28;20527;-71
2022/02/20 00:13:23;;;;;;;6.15;0.90;;;;;;;;;;4971184;28;20477;-71
2022/02/20 00:15:50;;;;;;;4.22;0.70;;;;;;;;;;4971387;28;20050;-71
2022/02/20 00:18:16;;;;;;;5.55;0.95;;;;;;;;;;4971548;28;20167;-71
2022/02/20 00:20:44;;;;;;;4.57;1.38;;;;;;;;;;4971299;28;20050;-71
2022/02/20 00:23:12;;;;;;;4.35;0.90;;;;;;;;;;4967747;28;20055;-71
2022/02/20 00:25:39;;;;;;;6.25;1.55;;;;;;;;;;4971291;28;20121;-71
2022/02/20 00:28:06;;;;;;;4.15;1.10;;;;;;;;;;4970686;28;20561;-71
2022/02/20 00:30:33;;;;;;;6.95;1.13;;;;;;;;;;4971228;28;20050;-71
2022/02/20 00:33:00;;;;;;;3.45;1.02;;;;;;;;;;4960089;28;20047;-71
2022/02/20 00:35:35;;;;;;;4.22;0.90;;;;;;;;;;4971037;28;20043;-71
2022/02/20 00:38:04;;;;;;;5.95;0.80;;;;;;;;;;4969875;28;20050;-71
2022/02/20 00:40:31;;;;;;;8.48;1.55;;;;;;;;;;4960115;28;20118;-71
2022/02/20 00:42:58;;;;;;;5.93;1.10;;;;;;;;;;4970830;28;20105;-71
2022/02/20 00:45:25;;;;;;;4.00;1.10;;;;;;;;;;4970598;28;20054;-71
2022/02/20 00:47:52;;;;;;;2.55;0.70;;;;;;;;;;4974323;28;20058;-71
2022/02/20 00:50:19;;;;;;;5.65;1.20;;;;;;;;;;4975120;28;20050;-71
2022/02/20 00:52:45;;;;;;;8.20;1.05;;;;;;;;;;4974046;28;20383;-71
2022/02/20 00:55:12;;;;;;;5.30;1.02;;;;;;;;;;4974708;28;20055;-71
2022/02/20 00:57:39;;;;;;;12.00;1.23;;;;;;;;;;4974905;28;20051;-71
2022/02/20 01:00:07;;;;;;;5.88;1.23;;;;;;;;;;4972865;28;20065;-70
2022/02/20 01:02:34;;;;;;;7.47;1.48;;;;;;;;;;4972223;28;20050;-71
2022/02/20 01:05:01;;;;;;;5.68;1.17;;;;;;;;;;4973386;28;20081;-70
2022/02/20 01:07:28;;;;;;;10.70;1.75;;;;;;;;;;4974616;28;20402;-71
2022/02/20 01:09:54;;;;;;;6.05;1.00;;;;;;;;;;4974209;28;20106;-71
2022/02/20 01:12:21;;;;;;;6.03;1.05;;;;;;;;;;4974825;28;20063;-71
2022/02/20 01:14:48;;;;;;;4.05;0.90;;;;;;;;;;4974190;28;20113;-72
2022/02/20 01:17:14;;;;;;;4.00;0.80;;;;;;;;;;4956598;28;20093;-71
2022/02/20 01:19:41;;;;;;;7.40;1.15;;;;;;;;;;4974118;28;20055;-71
2022/02/20 01:22:08;;;;;;;8.15;1.80;;;;;;;;;;4974475;28;20086;-71
2022/02/20 01:24:35;;;;;;;5.50;0.95;;;;;;;;;;4973375;28;20049;-71
2022/02/20 01:27:02;;;;;;;5.13;1.00;;;;;;;;;;4953953;28;20077;-71
2022/02/20 01:29:28;;;;;;;5.97;1.77;;;;;;;;;;4974026;28;20115;-71
2022/02/20 01:31:55;;;;;;;5.38;1.00;;;;;;;;;;4973505;28;20054;-71
2022/02/20 01:34:22;;;;;;;3.30;0.63;;;;;;;;;;4973363;28;20426;-71
2022/02/20 01:36:48;;;;;;;3.95;0.90;;;;;;;;;;4974153;28;20117;-71
2022/02/20 01:39:15;;;;;;;6.10;1.27;;;;;;;;;;4973940;28;20113;-71
2022/02/20 01:41:43;;;;;;;3.78;0.68;;;;;;;;;;4973905;28;20058;-71
2022/02/20 01:44:10;;;;;;;8.40;1.55;;;;;;;;;;4972015;28;20098;-71
2022/02/20 01:46:36;;;;;;;3.45;1.00;;;;;;;;;;4973709;28;20039;-71
2022/02/20 01:49:03;;;;;;;3.60;1.08;;;;;;;;;;4973727;28;20097;-71
2022/02/20 01:51:30;;;;;;;2.38;0.77;;;;;;;;;;4973548;28;20050;-71
2022/02/20 01:53:56;;;;;;;4.13;0.98;;;;;;;;;;4974084;28;20465;-71
2022/02/20 01:56:23;;;;;;;4.60;0.85;;;;;;;;;;4973020;28;20101;-71
2022/02/20 01:58:50;;;;;;;3.70;0.90;;;;;;;;;;4973767;28;20498;-71
2022/02/20 02:01:17;;;;;;;5.07;1.35;;;;;;;;;;4972244;28;20565;-71
2022/02/20 02:03:43;;;;;;;4.65;0.70;;;;;;;;;;4972728;28;20113;-71
2022/02/20 02:06:10;;;;;;;6.00;0.80;;;;;;;;;;4973747;28;20097;-71
2022/02/20 02:08:36;;;;;;;2.45;0.82;;;;;;;;;;4969597;28;20086;-71
2022/02/20 02:11:04;;;;;;;4.28;1.02;;;;;;;;;;4971987;28;20102;-71
2022/02/20 02:13:30;;;;;;;7.10;1.02;;;;;;;;;;4971830;28;20503;-71
2022/02/20 02:15:57;;;;;;;4.60;0.90;;;;;;;;;;4972790;28;20078;-71
2022/02/20 02:18:24;;;;;;;5.15;1.65;;;;;;;;;;4972754;28;20490;-71
2022/02/20 02:20:50;;;;;;;4.60;0.88;;;;;;;;;;4973611;28;20050;-71
2022/02/20 02:23:18;;;;;;;5.90;0.90;;;;;;;;;;4973017;28;20102;-72
2022/02/20 02:25:48;;;;;;;5.25;0.80;;;;;;;;;;4971535;28;20053;-72
2022/02/20 02:28:14;;;;;;;3.90;1.40;;;;;;;;;;4971993;28;20051;-71
2022/02/20 02:30:41;;;;;;;7.60;1.88;;;;;;;;;;4973208;28;20418;-71
2022/02/20 02:33:08;;;;;;;1.13;0.60;;;;;;;;;;4972659;28;20426;-71
2022/02/20 02:35:34;;;;;;;4.38;1.33;;;;;;;;;;4972489;28;20445;-71
2022/02/20 02:38:01;;;;;;;2.78;1.02;;;;;;;;;;4972565;28;20046;-71
2022/02/20 02:40:28;;;;;;;6.25;0.80;;;;;;;;;;4972889;28;20466;-71
2022/02/20 02:42:54;;;;;;;5.13;0.90;;;;;;;;;;4972840;28;20050;-71
2022/02/20 02:45:27;;;;;;;3.85;0.82;;;;;;;;;;4972963;28;20051;-71
2022/02/20 02:47:54;;;;;;;;;;;;;;;;;;4972791;28;20046;-72
2022/02/20 02:50:24;;;;;;;6.28;1.23;;;;;;;;;;4972575;28;19922;-71
2022/02/20 02:52:51;;;;;;;2.90;0.82;;;;;;;;;;4970152;28;20497;-72
2022/02/20 02:55:17;;;;;;;5.15;0.80;;;;;;;;;;4972590;28;20058;-72
2022/02/20 02:57:44;;;;;;;5.75;0.88;;;;;;;;;;4972886;28;20101;-72
2022/02/20 03:00:11;;;;;;;2.28;0.68;;;;;;;;;;4972575;28;20347;-71
2022/02/20 03:02:37;;;;;;;4.07;1.67;;;;;;;;;;4972623;28;20055;-71
2022/02/20 03:05:04;;;;;;;3.60;0.80;;;;;;;;;;4972549;28;20461;-71
2022/02/20 03:07:31;;;;;;;4.28;1.08;;;;;;;;;;4971777;28;20047;-71
2022/02/20 03:09:57;;;;;;;4.60;0.80;;;;;;;;;;4972203;28;20038;-71
2022/02/20 03:12:24;;;;;;;4.68;0.80;;;;;;;;;;4971966;28;20059;-71
2022/02/20 03:14:51;;;;;;;3.10;0.90;;;;;;;;;;4972405;28;20436;-71
2022/02/20 03:17:17;;;;;;;2.65;0.80;;;;;;;;;;4971501;28;20187;-71
2022/02/20 03:19:44;;;;;;;6.53;1.35;;;;;;;;;;4972156;28;20054;-70
2022/02/20 03:22:11;;;;;;;2.92;0.95;;;;;;;;;;4971936;28;20054;-70
2022/02/20 03:24:37;;;;;;;1.55;0.63;;;;;;;;;;4970658;28;20146;-71
2022/02/20 03:27:04;;;;;;;5.05;1.13;;;;;;;;;;4971958;28;20050;-71
2022/02/20 03:29:30;;;;;;;3.15;0.70;;;;;;;;;;4971880;28;20050;-71
2022/02/20 03:31:57;;;;;;;3.47;0.93;;;;;;;;;;4971537;28;20097;-71
2022/02/20 03:34:23;;;;;;;4.43;1.00;;;;;;;;;;4972202;28;20046;-71
2022/02/20 03:36:50;;;;;;;5.75;1.23;;;;;;;;;;4971658;28;20058;-71
2022/02/20 03:39:18;;;;;;;4.38;0.80;;;;;;;;;;4971333;28;20474;-71
2022/02/20 03:41:45;;;;;;;3.38;0.77;;;;;;;;;;4971702;28;20407;-71
2022/02/20 03:44:11;;;;;;;3.75;0.80;;;;;;;;;;4955009;28;20125;-71
2022/02/20 03:46:38;;;;;;;5.32;0.80;;;;;;;;;;4971322;28;20047;-71
2022/02/20 03:49:04;;;;;;;3.53;0.70;;;;;;;;;;4971545;28;20117;-71
2022/02/20 03:51:31;;;;;;;3.72;0.80;;;;;;;;;;4971407;28;20055;-71
2022/02/20 03:53:58;;;;;;;4.95;0.95;;;;;;;;;;4971473;28;20564;-71
2022/02/20 03:56:24;;;;;;;4.93;0.75;;;;;;;;;;4971283;28;20098;-72
2022/02/20 03:58:51;;;;;;;4.13;0.63;;;;;;;;;;4968717;28;20047;-72
2022/02/20 04:01:18;;;;;;;1.83;0.70;;;;;;;;;;4972329;28;20097;-72
2022/02/20 04:03:44;;;;;;;5.68;1.55;;;;;;;;;;4972276;28;20117;-71
2022/02/20 04:06:11;;;;;;;2.25;1.10;;;;;;;;;;4972433;28;20051;-71
2022/02/20 04:08:37;;;;;;;1.58;0.85;;;;;;;;;;4971923;28;20533;-72
2022/02/20 04:11:04;;;;;;;3.55;0.82;;;;;;;;;;4972110;28;20046;-71
2022/02/20 04:13:31;;;;;;;2.92;0.80;;;;;;;;;;4971081;28;20055;-71
2022/02/20 04:15:57;;;;;;;1.17;0.47;;;;;;;;;;4971881;28;20097;-71
2022/02/20 04:18:24;;;;;;;1.10;0.50;;;;;;;;;;4971569;28;20055;-71
2022/02/20 04:20:51;;;;;;;4.57;0.70;;;;;;;;;;4969401;28;20043;-71
2022/02/20 04:23:17;;;;;;;1.55;0.50;;;;;;;;;;4970959;28;20082;-71
2022/02/20 04:25:44;;;;;;;3.45;1.00;;;;;;;;;;4971675;28;20125;-71
2022/02/20 04:28:13;;;;;;;1.33;0.63;;;;;;;;;;4971191;28;20101;-71
2022/02/20 04:30:40;;;;;;;1.80;0.52;;;;;;;;;;4971153;28;20105;-71
2022/02/20 04:33:07;;;;;;;0.95;0.60;;;;;;;;;;4971104;28;20572;-71
2022/02/20 04:35:33;;;;;;;3.20;0.63;;;;;;;;;;4971623;28;20580;-71
2022/02/20 04:38:00;;;;;;;6.88;0.57;;;;;;;;;;4971537;28;20043;-71
2022/02/20 04:40:27;;;;;;;3.08;0.50;;;;;;;;;;4966935;28;20474;-72
2022/02/20 04:42:54;;;;;;;0.90;0.40;;;;;;;;;;4969947;28;20047;-71
2022/02/20 04:45:20;;;;;;;2.17;0.50;;;;;;;;;;4970982;28;20055;-71
2022/02/20 04:47:47;;;;;;;3.35;0.70;;;;;;;;;;4970442;28;20378;-71
2022/02/20 04:50:13;;;;;;;2.45;0.55;;;;;;;;;;4971283;28;20105;-71
2022/02/20 04:52:40;;;;;;;2.17;0.63;;;;;;;;;;4971015;28;20110;-71
2022/02/20 04:55:07;;;;;;;4.03;0.45;;;;;;;;;;4971602;28;20117;-71
2022/02/20 04:57:35;;;;;;;1.17;0.30;;;;;;;;;;4971534;28;20121;-72
2022/02/20 05:00:06;;;;;;;3.33;0.55;;;;;;;;;;4969489;28;20102;-72
2022/02/20 05:02:33;;;;;;;0.88;0.43;;;;;;;;;;4973275;28;20477;-71
2022/02/20 05:05:00;;;;;;;1.30;0.50;;;;;;;;;;4954400;28;20125;-72
2022/02/20 05:07:29;;;;;;;0.32;0.30;;;;;;;;;;4971021;28;20520;-71
2022/02/20 05:09:55;;;;;;;3.63;0.65;;;;;;;;;;4970986;28;20042;-71
2022/02/20 05:12:22;;;;;;;4.30;0.70;;;;;;;;;;4970998;28;20054;-72
2022/02/20 05:14:49;;;;;;;1.88;0.40;;;;;;;;;;4970625;28;20130;-72
2022/02/20 05:17:17;;;;;;;0.75;0.30;;;;;;;;;;4970661;28;20101;-72
2022/02/20 05:19:44;;;;;;;0.30;0.30;;;;;;;;;;4971537;28;20117;-71
2022/02/20 05:22:10;;;;;;;3.90;0.63;;;;;;;;;;4971075;28;20051;-71
2022/02/20 05:24:39;;;;;;;1.90;0.75;;;;;;;;;;4971087;28;20043;-71
2022/02/20 05:27:05;;;;;;;1.02;0.20;;;;;;;;;;4970394;28;20047;-71
2022/02/20 05:29:32;;;;;;;0.35;0.30;;;;;;;;;;4970784;28;20053;-71
2022/02/20 05:31:59;;;;;;;0.50;0.40;;;;;;;;;;4975105;28;20046;-72
2022/02/20 05:34:25;;;;;;;1.98;0.38;;;;;;;;;;4974147;28;20046;-70
2022/02/20 05:36:52;;;;;;;1.48;0.43;;;;;;;;;;4974204;28;20105;-70
2022/02/20 05:39:19;;;;;;;2.80;0.50;;;;;;;;;;4974430;28;20050;-71
2022/02/20 05:41:45;;;;;;;4.22;0.57;;;;;;;;;;4974600;28;20473;-71
2022/02/20 05:44:12;;;;;;;5.53;0.60;;;;;;;;;;4974258;28;20470;-71
2022/02/20 05:46:38;;;;;;;3.47;0.50;;;;;;;;;;4973583;28;20433;-71
2022/02/20 05:49:05;;;;;;;1.75;0.40;;;;;;;;;;4973760;28;20047;-71
2022/02/20 05:51:32;;;;;;;2.05;0.60;;;;;;;;;;4973741;28;20050;-71
2022/02/20 05:53:58;;;;;;;1.60;0.32;;;;;;;;;;4970626;28;20070;-71
2022/02/20 05:56:25;;;;;;;2.38;0.50;;;;;;;;;;4974035;28;20050;-71
2022/02/20 05:58:51;;;;;;;1.08;0.40;;;;;;;;;;4973797;28;20055;-71
2022/02/20 06:01:18;;;;;;;3.30;0.60;;;;;;;;;;4971156;28;20498;-71
2022/02/20 06:03:45;;;;;;;2.65;0.40;;;;;;;;;;4973725;28;20109;-71
2022/02/20 06:06:11;;;;;;;2.42;0.50;;;;;;;;;;4974034;28;20195;-71
2022/02/20 06:08:38;;;;;;;2.33;0.70;;;;;;;;;;4956346;28;20050;-71
2022/02/20 06:11:04;;;;;;;1.95;0.30;;;;;;;;;;4957367;28;20097;-71
2022/02/20 06:13:31;;;;;;;1.70;0.50;;;;;;;;;;4973296;28;20486;-71
2022/02/20 06:15:57;;;;;;;2.17;0.50;;;;;;;;;;4973986;28;20462;-71
2022/02/20 06:18:24;;;;;;;1.08;0.70;;;;;;;;;;4973143;28;20114;-71
2022/02/20 06:20:51;;;;;;;2.42;0.43;;;;;;;;;;4973386;28;20490;-71
2022/02/20 06:23:17;;;;;;;1.27;0.65;;;;;;;;;;4973626;28;20054;-70
2022/02/20 06:25:44;;;;;;;6.68;2.58;;;;;;;;;;4973331;28;20113;-70
2022/02/20 06:28:11;;;;;;;3.88;2.00;;;;;;;;;;4972985;28;20043;-70
2022/02/20 06:30:37;;;;;;;2.90;1.13;;;;;;;;;;4973377;28;20051;-70
2022/02/20 06:33:05;;;;;;;2.47;0.40;;;;;;;;;;4972894;28;20102;-70
2022/02/20 06:35:31;;;;;;;0.85;0.47;;;;;;;;;;4972363;28;20473;-69
2022/02/20 06:37:58;;;;;;;3.10;0.57;;;;;;;;;;4972602;28;20044;-69
2022/02/20 06:40:25;;;;;;;2.35;0.50;;;;;;;;;;4972861;28;20468;-69
2022/02/20 06:42:51;;;;;;;2.42;0.40;;;;;;;;;;4972084;28;20132;-72
2022/02/20 06:45:18;;;;;;;3.10;0.63;;;;;;;;;;4965939;28;20109;-72
2022/02/20 06:47:47;;;;;;;4.03;0.50;;;;;;;;;;4973256;28;20039;-71
2022/02/20 06:50:13;;;;;;;0.93;0.32;;;;;;;;;;4972659;28;20106;-71
2022/02/20 06:52:40;;;;;;;0.82;0.47;;;;;;;;;;4972202;28;20047;-71
2022/02/20 06:55:10;;;;;;;1.15;0.40;;;;;;;;;;4972887;28;20457;-72
2022/02/20 06:57:38;;;;;;;1.38;0.82;;;;;;;;;;4972682;28;20038;-72
2022/02/20 07:00:07;;;;;;;2.60;0.60;;;;;;;;;;4964766;28;20109;-70
2022/02/20 07:02:34;;;;;;;2.80;0.30;;;;;;;;;;4972588;28;20054;-70
2022/02/20 07:05:01;;;;;;;0.52;0.25;;;;;;;;;;4972196;28;20462;-71
2022/02/20 07:07:28;;;;;;;0.45;0.28;;;;;;;;;;4968861;28;20057;-71
2022/02/20 07:09:55;;;;;;;0.70;0.22;;;;;;;;;;4961730;28;20079;-70
2022/02/20 07:12:21;;;;;;;1.55;0.40;;;;;;;;;;4968372;28;20461;-70
2022/02/20 07:14:48;;;;;;;1.33;0.38;;;;;;;;;;4972784;28;20047;-70
2022/02/20 07:17:14;;;;;;;1.38;0.40;;;;;;;;;;4971957;28;20046;-70
2022/02/20 07:19:41;;;;;;;0.73;0.52;;;;;;;;;;4972111;28;20097;-70
2022/02/20 07:22:08;;;;;;;1.77;0.30;;;;;;;;;;4971843;28;20055;-69
2022/02/20 07:24:34;;;;;;;0.65;0.40;;;;;;;;;;4971802;28;20046;-70
2022/02/20 07:27:01;;;;;;;1.35;0.30;;;;;;;;;;4972101;28;20106;-69
2022/02/20 07:29:28;;;;;;;0.38;0.20;;;;;;;;;;4972221;28;20473;-70
2022/02/20 07:31:54;;;;;;;10.60;5.18;;;;;;;;;;4972072;28;20046;-69
2022/02/20 07:34:21;;;;;;;0.80;0.30;;;;;;;;;;4971870;28;20055;-70
2022/02/20 07:36:47;;;;;;;1.30;0.38;;;;;;;;;;4971762;28;20050;-69
2022/02/20 07:39:15;;;;;;;0.60;0.38;;;;;;;;;;4971858;28;20097;-69
2022/02/20 07:41:41;;;;;;;0.22;0.20;;;;;;;;;;4971622;28;20051;-71
2022/02/20 07:44:08;;;;;;;0.47;0.40;;;;;;;;;;4955019;28;20050;-68
2022/02/20 07:46:35;;;;;;;0.75;0.30;;;;;;;;;;4971082;28;20043;-70
2022/02/20 07:49:02;;;;;;;0.75;0.22;;;;;;;;;;4942122;28;20043;-69
2022/02/20 07:51:29;;;;;;;1.83;0.43;;;;;;;;;;4971218;28;20046;-72
2022/02/20 07:54:04;;;;;;;1.95;0.30;;;;;;;;;;4970931;28;20043;-75
2022/02/20 07:56:31;;;;;;;2.65;0.40;;;;;;;;;;4948504;28;20078;-72
2022/02/20 07:58:58;;;;;;;1.67;0.50;;;;;;;;;;4973023;28;20051;-73
2022/02/20 08:01:33;;;;;;;1.73;0.30;;;;;;;;;;4978430;28;20105;-71
2022/02/20 08:04:11;;;;;;;0.65;0.40;;;;;;;;;;4942957;28;20066;-73
2022/02/20 08:06:43;;;;;;;2.92;0.57;;;;;;;;;;4930172;28;20059;-71
2022/02/20 08:09:09;;;;;;;2.13;0.60;;;;;;;;;;4971954;28;20097;-74
2022/02/20 08:11:36;;;;;;;0.55;0.30;;;;;;;;;;4971443;28;20086;-73
2022/02/20 08:14:04;;;;;;;0.82;0.40;;;;;;;;;;4970596;28;20101;-72
2022/02/20 08:16:31;;;;;;;2.65;0.63;;;;;;;;;;4971411;28;20097;-73
2022/02/20 08:18:57;;;;;;;0.68;0.30;;;;;;;;;;4957146;28;20051;-71
2022/02/20 08:21:24;;;;;;;0.95;0.40;;;;;;;;;;4972527;28;20515;-70
2022/02/20 08:23:51;;;;;;;0.77;0.52;;;;;;;;;;4971813;28;20503;-69
2022/02/20 08:26:17;;;;;;;1.90;0.60;;;;;;;;;;4971041;28;20083;-67
2022/02/20 08:28:44;;;;;;;1.45;0.88;;;;;;;;;;4973825;28;20526;-68
2022/02/20 08:31:11;;;;;;;0.43;0.28;;;;;;;;;;4976223;28;20051;-69
2022/02/20 08:33:38;;;;;;;0.80;0.50;;;;;;;;;;4974984;28;20078;-68
2022/02/20 08:36:15;;;;;;;1.55;0.50;;;;;;;;;;4957671;28;20063;-69
2022/02/20 08:38:42;;;;;;;4.30;1.65;;;;;;;;;;4970628;28;20146;-70
2022/02/20 08:41:09;;;;;;;2.40;0.60;;;;;;;;;;4970610;28;20109;-68
2022/02/20 08:43:35;;;;;;;3.70;0.60;;;;;;;;;;4970511;28;20150;-70
2022/02/20 08:46:02;;;;;;;2.97;0.90;;;;;;;;;;4971389;28;20046;-67
2022/02/20 08:48:33;;;;;;;1.35;0.40;;;;;;;;;;4970658;28;20051;-67
2022/02/20 08:51:00;;;;;;;1.27;0.43;;;;;;;;;;4967669;28;20432;-69
2022/02/20 08:53:26;;;;;;;2.55;0.68;;;;;;;;;;4970747;28;20046;-69
2022/02/20 08:55:53;;;;;;;7.85;2.97;;;;;;;;;;4969519;28;20105;-70
2022/02/20 08:58:20;;;;;;;1.88;0.82;;;;;;;;;;4969322;28;20545;-69
2022/02/20 09:00:46;;;;;;;2.20;0.50;;;;;;;;;;4970792;28;20081;-69
2022/02/20 09:03:13;;;;;;;1.60;0.60;;;;;;;;;;4970536;28;20133;-67
2022/02/20 09:05:40;;;;;;;1.45;0.60;;;;;;;;;;4953560;28;20050;-66
2022/02/20 09:08:06;;;;;;;1.55;0.40;;;;;;;;;;4974977;28;20046;-65
2022/02/20 09:10:33;;;;;;;2.45;0.47;;;;;;;;;;4975224;28;20113;-70
2022/02/20 09:13:00;;;;;;;1.17;0.40;;;;;;;;;;4974521;28;20042;-69
2022/02/20 09:15:26;;;;;;;1.67;0.80;;;;;;;;;;4973706;28;20600;-69
2022/02/20 09:17:53;;;;;;;1.27;0.65;;;;;;;;;;4975352;28;20051;-71
2022/02/20 09:20:20;;;;;;;3.55;0.57;;;;;;;;;;4979218;28;20093;-72
2022/02/20 09:22:47;;;;;;;1.80;0.57;;;;;;;;;;4979811;28;20085;-72
2022/02/20 09:25:14;;;;;;;1.58;0.40;;;;;;;;;;4981526;28;20055;-71
2022/02/20 09:27:42;;;;;;;1.50;0.25;;;;;;;;;;4978933;28;20050;-72
2022/02/20 09:30:09;;;;;;;0.40;0.40;;;;;;;;;;4976150;28;20054;-71
2022/02/20 09:32:36;;;;;;;1.95;0.50;;;;;;;;;;4978392;28;20110;-73
2022/02/20 09:35:03;;;;;;;1.38;0.45;;;;;;;;;;4978537;28;20051;-72
2022/02/20 09:37:30;;;;;;;2.90;0.50;;;;;;;;;;4974098;28;20082;-70
2022/02/20 09:39:56;;;;;;;1.77;0.80;;;;;;;;;;4974365;28;20042;-69
2022/02/20 09:42:23;;;;;;;1.05;0.45;;;;;;;;;;4977893;28;20407;-70
2022/02/20 09:44:50;;;;;;;1.15;0.20;;;;;;;;;;4958437;28;20117;-71
2022/02/20 09:47:16;;;;;;;1.48;0.20;;;;;;;;;;4980038;28;20050;-70
2022/02/20 09:49:44;;;;;;;1.25;0.40;;;;;;;;;;4979328;28;20046;-69
2022/02/20 09:52:10;;;;;;;1.35;0.30;;;;;;;;;;4972265;28;20051;-69
2022/02/20 09:54:38;;;;;;;1.98;0.40;;;;;;;;;;4974827;28;20058;-73
2022/02/20 09:57:04;;;;;;;1.23;0.50;;;;;;;;;;4974293;28;20529;-73
2022/02/20 09:59:31;;;;;;;1.08;0.50;;;;;;;;;;4973970;28;20101;-70
2022/02/20 10:02:05;;;;;;;1.70;0.50;;;;;;;;;;4973748;28;20573;-69
2022/02/20 10:04:51;;;;;;;0.90;0.40;;;;;;;;;;4973139;28;20051;-70
2022/02/20 10:07:28;;;;;;;1.98;0.50;;;;;;;;;;4973994;28;20054;-71
2022/02/20 10:09:56;;;;;;;1.40;0.30;;;;;;;;;;4987554;23;20137;-65
2022/02/20 10:12:24;;;;;;;1.45;0.47;;;;;;;;;;4934906;29;20088;-67
2022/02/20 10:14:51;;;;;;;3.03;0.40;;;;;;;;;;4918659;29;20106;-69
2022/02/20 10:17:21;;;;;;;1.17;0.52;;;;;;;;;;4911242;29;20805;-68
2022/02/20 10:19:52;;;;;;;0.38;0.22;;;;;;;;;;4937743;29;20047;-69
2022/02/20 10:22:39;;;;;;;0.80;0.40;;;;;;;;;;4929688;29;20047;-69
2022/02/20 10:25:10;;;;;;;1.15;0.40;;;;;;;;;;4936783;29;20589;-69
2022/02/20 10:27:54;;;;;;;1.23;0.40;;;;;;;;;;4936769;29;20107;-68
2022/02/20 10:30:24;;;;;;;1.38;0.38;;;;;;;;;;4936069;29;20062;-68
2022/02/20 10:33:04;;;;;;;0.70;0.50;;;;;;;;;;4952110;29;20051;-69
2022/02/20 10:35:35;;;;;;;1.63;0.30;;;;;;;;;;4934670;29;20454;-69
2022/02/20 10:38:07;;;;;;;2.40;0.30;;;;;;;;;;4919405;29;20549;-70
2022/02/20 10:40:34;;;;;;;1.85;0.60;;;;;;;;;;4911082;29;20102;-70
2022/02/20 10:43:03;;;;;;;2.25;1.70;;;;;;;;;;4929359;29;20055;-70
2022/02/20 10:45:35;;;;;;;4.95;2.10;;;;;;;;;;4936299;29;20043;-67
2022/02/20 10:48:03;;;;;;;2.40;1.65;;;;;;;;;;4934434;29;20043;-67
2022/02/20 10:50:31;;;;;;;1.02;0.52;;;;;;;;;;4952626;28;20047;-68
2022/02/20 10:53:10;;;;;;;0.45;0.40;;;;;;;;;;4936075;29;20051;-68
2022/02/20 10:55:42;;;;;;;2.38;0.35;;;;;;;;;;4952486;29;20059;-67
2022/02/20 10:58:24;;;;;;;1.02;0.30;;;;;;;;;;4935632;29;20050;-69
2022/02/20 11:00:55;;;;;;;0.88;0.30;;;;;;;;;;4926548;29;20093;-68
2022/02/20 11:03:23;;;;;;;0.93;0.40;;;;;;;;;;4936232;29;20470;-68
2022/02/20 11:05:51;;;;;;;0.32;0.32;;;;;;;;;;4935852;29;20510;-67
2022/02/20 11:08:20;;;;;;;1.65;0.40;;;;;;;;;;4935766;29;20047;-68
2022/02/20 11:10:47;;;;;;;0.93;0.40;;;;;;;;;;4909522;29;20051;-68
2022/02/20 11:13:15;;;;;;;0.70;0.30;;;;;;;;;;4920542;29;20490;-69
2022/02/20 11:15:42;;;;;;;2.05;0.40;;;;;;;;;;4936127;29;20059;-69
2022/02/20 11:18:11;;;;;;;0.47;0.35;;;;;;;;;;4919791;29;20043;-70
2022/02/20 11:20:39;;;;;;;1.13;0.60;;;;;;;;;;4928542;29;20462;-70
2022/02/20 11:23:07;;;;;;;0.98;0.80;;;;;;;;;;4920285;29;20062;-70
2022/02/20 11:25:35;;;;;;;0.60;0.57;;;;;;;;;;4910610;29;20047;-70
2022/02/20 11:28:03;;;;;;;0.70;0.70;;;;;;;;;;4952552;29;20062;-70
2022/02/20 11:30:31;;;;;;;0.60;0.60;;;;;;;;;;4952143;28;20051;-68
2022/02/20 11:33:03;;;;;;;0.57;0.52;;;;;;;;;;4919547;29;20117;-70
2022/02/20 11:35:31;;;;;;;0.80;0.45;;;;;;;;;;4934998;29;20051;-70
2022/02/20 11:38:04;;;;;;;0.47;0.40;;;;;;;;;;4920080;29;20121;-67
2022/02/20 11:40:31;;;;;;;0.52;0.38;;;;;;;;;;4935762;29;20051;-67
2022/02/20 11:43:01;;;;;;;0.45;0.40;;;;;;;;;;4952667;29;20090;-68
2022/02/20 11:45:30;;;;;;;2.35;0.80;;;;;;;;;;4946527;29;20043;-73
2022/02/20 11:48:14;;;;;;;0.95;0.30;;;;;;;;;;4938184;29;20075;-70
2022/02/20 11:50:42;;;;;;;1.55;0.40;;;;;;;;;;4951953;28;20518;-69
2022/02/20 11:53:11;;;;;;;0.38;0.38;;;;;;;;;;4919755;29;20434;-71
2022/02/20 11:55:42;;;;;;;0.80;0.30;;;;;;;;;;4935913;29;20580;-73
2022/02/20 11:58:11;;;;;;;1.02;0.63;;;;;;;;;;4936813;29;20055;-74
2022/02/20 12:01:03;;;;;;;0.22;0.20;;;;;;;;;;4933712;29;20061;-71
2022/02/20 12:03:42;;;;;;;0.25;0.22;;;;;;;;;;4936141;29;20098;-74
2022/02/20 12:06:09;;;;;;;1.85;0.68;;;;;;;;;;4942129;29;20051;-73
2022/02/20 12:08:44;;;;;;;0.50;0.32;;;;;;;;;;4951493;29;20048;-73
2022/02/20 12:11:16;;;;;;;0.77;0.30;;;;;;;;;;4907905;29;20055;-73
2022/02/20 12:13:47;;;;;;;0.60;0.60;;;;;;;;;;4949643;29;20051;-74
2022/02/20 12:16:43;;;;;;;2.60;0.40;;;;;;;;;;4909618;29;20048;-72
2022/02/20 12:19:25;;;;;;;0.43;0.20;;;;;;;;;;4947460;28;20051;-73
2022/02/20 12:21:58;;;;;;;1.40;0.90;;;;;;;;;;4932418;29;20051;-73
2022/02/20 12:24:29;;;;;;;1.50;0.50;;;;;;;;;;4935149;29;20142;-70
2022/02/20 12:26:59;;;;;;;3.03;1.15;;;;;;;;;;4948584;29;20048;-69
2022/02/20 12:29:37;;;;;;;2.72;0.73;;;;;;;;;;4933075;28;20561;-68
2022/02/20 12:32:20;;;;;;;0.20;0.20;;;;;;;;;;4948300;29;20074;-68
2022/02/20 12:34:57;;;;;;;0.50;0.43;;;;;;;;;;4932792;29;20051;-68
2022/02/20 12:37:27;;;;;;;0.80;0.57;;;;;;;;;;4931180;29;20122;-68
2022/02/20 12:39:59;;;;;;;2.20;0.60;;;;;;;;;;4930368;28;20529;-69
2022/02/20 12:42:27;;;;;;;2.08;0.60;;;;;;;;;;4936859;29;20051;-68
2022/02/20 12:45:10;;;;;;;0.85;0.20;;;;;;;;;;4914976;29;20576;-69
2022/02/20 12:47:38;;;;;;;0.85;0.30;;;;;;;;;;4934268;29;20180;-69
2022/02/20 12:50:08;;;;;;;1.48;0.45;;;;;;;;;;4920657;29;20105;-69
2022/02/20 12:52:36;;;;;;;1.48;0.50;;;;;;;;;;4910825;29;20059;-68
2022/02/20 12:55:08;;;;;;;1.58;0.22;;;;;;;;;;4953616;29;20055;-68
2022/02/20 12:57:38;;;;;;;1.98;0.73;;;;;;;;;;4949438;29;20510;-69
2022/02/20 13:00:16;;;;;;;0.68;0.43;;;;;;;;;;4914422;29;20422;-68
2022/02/20 13:02:46;;;;;;;0.80;0.50;;;;;;;;;;4936277;29;20062;-68
2022/02/20 13:05:20;;;;;;;0.52;0.40;;;;;;;;;;4910302;29;20051;-69
2022/02/20 13:08:08;;;;;;;1.75;0.60;;;;;;;;;;4935861;29;20630;-69
2022/02/20 13:10:37;;;;;;;1.63;0.40;;;;;;;;;;4953089;28;20043;-68
2022/02/20 13:13:09;;;;;;;1.63;0.50;;;;;;;;;;4917329;29;20110;-68
2022/02/20 13:15:47;;;;;;;0.70;0.25;;;;;;;;;;4952881;29;20085;-68
2022/02/20 13:18:17;;;;;;;0.98;0.40;;;;;;;;;;4935750;29;20055;-69
2022/02/20 13:20:49;;;;;;;0.80;0.32;;;;;;;;;;4922988;29;20055;-68
2022/02/20 13:23:19;;;;;;;1.60;0.80;;;;;;;;;;4919817;29;20050;-69
2022/02/20 13:25:47;;;;;;;2.60;0.40;;;;;;;;;;4920261;29;20575;-69
2022/02/20 13:28:18;;;;;;;0.98;0.32;;;;;;;;;;4936500;29;20545;-69
2022/02/20 13:30:46;;;;;;;2.13;0.63;;;;;;;;;;4904990;29;20105;-68
2022/02/20 13:33:19;;;;;;;1.55;0.70;;;;;;;;;;4925872;29;20047;-69
2022/02/20 13:35:47;;;;;;;0.90;0.60;;;;;;;;;;4936112;29;20047;-67
2022/02/20 13:38:16;;;;;;;1.30;0.55;;;;;;;;;;4910147;29;20115;-67
2022/02/20 13:40:48;;;;;;;1.98;0.70;;;;;;;;;;4904340;29;20138;-68
2022/02/20 13:43:15;;;;;;;1.85;0.77;;;;;;;;;;4936253;29;20055;-68
2022/02/20 13:45:54;;;;;;;1.40;0.50;;;;;;;;;;4936329;29;20059;-68
2022/02/20 13:48:33;;;;;;;0.50;0.35;;;;;;;;;;4952490;29;20055;-68
2022/02/20 13:51:10;;;;;;;1.15;0.40;;;;;;;;;;4937165;29;20057;-66
2022/02/20 13:53:51;;;;;;;0.60;0.47;;;;;;;;;;4950372;28;20102;-68
2022/02/20 13:56:20;;;;;;;2.75;0.52;;;;;;;;;;4936096;29;20058;-68
2022/02/20 13:58:54;;;;;;;1.83;0.73;;;;;;;;;;4952657;29;20514;-69
2022/02/20 14:01:23;;;;;;;0.50;0.40;;;;;;;;;;4935546;29;20047;-67
2022/02/20 14:03:50;;;;;;;0.75;0.68;;;;;;;;;;4928862;29;20055;-68
2022/02/20 14:06:17;;;;;;;1.17;0.80;;;;;;;;;;4952113;29;20740;-67
2022/02/20 14:08:43;;;;;;;1.17;0.82;;;;;;;;;;4927053;29;20114;-68
2022/02/20 14:11:13;;;;;;;0.80;0.55;;;;;;;;;;4951716;28;20055;-68
2022/02/20 14:13:42;;;;;;;1.35;0.55;;;;;;;;;;4919956;29;20059;-68
2022/02/20 14:16:10;;;;;;;0.45;0.45;;;;;;;;;;4910030;29;20517;-67
2022/02/20 14:18:46;;;;;;;0.75;0.43;;;;;;;;;;4935818;29;20070;-68
2022/02/20 14:21:20;;;;;;;1.50;0.73;;;;;;;;;;4951956;28;20063;-68
2022/02/20 14:23:48;;;;;;;2.05;0.60;;;;;;;;;;4919048;29;20086;-68
2022/02/20 14:26:22;;;;;;;1.58;0.70;;;;;;;;;;4932621;29;20102;-68
2022/02/20 14:28:51;;;;;;;0.75;0.32;;;;;;;;;;4934497;29;20050;-68
2022/02/20 14:31:22;;;;;;;0.47;0.47;;;;;;;;;;4922190;29;20059;-68
2022/02/20 14:33:50;;;;;;;0.65;0.40;;;;;;;;;;4910017;29;20499;-68
2022/02/20 14:36:28;;;;;;;1.85;0.50;;;;;;;;;;4925177;29;20055;-67
2022/02/20 14:38:55;;;;;;;1.50;0.55;;;;;;;;;;4934152;29;20057;-69
2022/02/20 14:41:22;;;;;;;2.58;0.50;;;;;;;;;;4933934;29;20055;-67
2022/02/20 14:43:49;;;;;;;0.85;0.50;;;;;;;;;;4951745;29;20051;-68
2022/02/20 14:46:16;;;;;;;1.25;0.55;;;;;;;;;;4918686;29;20141;-69
2022/02/20 14:48:45;;;;;;;0.77;0.30;;;;;;;;;;4934363;29;20043;-68
2022/02/20 14:51:13;;;;;;;3.30;0.40;;;;;;;;;;4934150;29;20055;-68